This is the latest recevied weather packets stored in our database for station/object OK2ZAW-23. If no packets are shown the sender has not sent any weather packets the latest 10 day(s).
| Time | Temp. | Humidity | Pressure | Rain* | Wind** | Luminosity | Snow |
|---|---|---|---|---|---|---|---|
| 1777840777 | 13.89° C | 45% | 1012.4 hPa | - | - | 335 W/m² | - |
| 1777840463 | 13.89° C | 44% | 1012.6 hPa | - | - | 335 W/m² | - |
| 1777840150 | 14.44° C | 44% | 1012.5 hPa | - | - | 335 W/m² | - |
| 1777839836 | 14.44° C | 43% | 1012.6 hPa | - | - | 335 W/m² | - |
| 1777839209 | 14.44° C | 43% | 1012.5 hPa | - | - | 335 W/m² | - |
| 1777838895 | 14.44° C | 44% | 1012.5 hPa | - | - | 335 W/m² | - |
| 1777838582 | 14.44° C | 42% | 1012.6 hPa | - | - | 335 W/m² | - |
| 1777837954 | 15° C | 41% | 1012.5 hPa | - | - | 336 W/m² | - |
| 1777837327 | 15° C | 41% | 1012.6 hPa | - | - | 335 W/m² | - |
| 1777837013 | 15° C | 41% | 1012.6 hPa | - | - | 335 W/m² | - |
| 1777836699 | 15.56° C | 40% | 1012.5 hPa | - | - | 335 W/m² | - |
| 1777836386 | 15.56° C | 39% | 1012.5 hPa | - | - | 335 W/m² | - |
| 1777835758 | 15.56° C | 38% | 1012.5 hPa | - | - | 336 W/m² | - |
| 1777835444 | 16.11° C | 38% | 1012.5 hPa | - | - | 335 W/m² | - |
| 1777835131 | 16.11° C | 37% | 1012.4 hPa | - | - | 335 W/m² | - |
| 1777834817 | 16.67° C | 36% | 1012.4 hPa | - | - | 336 W/m² | - |
| 1777834503 | 16.67° C | 36% | 1012.4 hPa | - | - | 336 W/m² | - |
| 1777834189 | 17.22° C | 35% | 1012.4 hPa | - | - | 335 W/m² | - |
| 1777832305 | 20° C | 30% | 1012 hPa | - | - | 336 W/m² | - |
| 1777831362 | 22.22° C | 27% | 1011.9 hPa | - | - | 336 W/m² | - |
| 1777831048 | 23.33° C | 26% | 1011.9 hPa | - | - | 336 W/m² | - |
| 1777830733 | 25° C | 25% | 1011.8 hPa | - | - | 336 W/m² | - |
| 1777829158 | 30° C | 21% | 1012 hPa | - | - | 336 W/m² | - |
| 1777828528 | 30.56° C | 21% | 1011.9 hPa | - | - | 336 W/m² | - |
| 1777828213 | 30° C | 21% | 1012 hPa | - | - | 336 W/m² | - |
* Rain since midnight (hover to see other rain measurements)
** Current wind speed in m/s (hover to see current wind gust speed)